メインページ
METAR-TAF:

METAR-TAF

空港 :

アンマン, ヨルダン

緯度: 31-59N, 経度: 035-59E, 海抜: 767m

現時点の気象観測

当レポートは30分前の06:00(UTC)に作成
無風
気温 19°C
湿度 64%
気圧 1020 hPa
視程: 5000m
煙霧

METAR: OJAM 220600Z 00000KT 5000 HZ NSC 19/12 Q1020 NOSIG

時間: 09:30 (06:30 UTC)

予報

当レポートは1時間40分前の04:50(UTC)に作成
予報は22日の 06時(UTC)から 23日の 12時(UTC)まで有効
東/南東の風 6kt
視程: 4000m
高度3500ftの雲はほとんどない
煙霧
22日の 10時(UTC)から 22日の 20時(UTC)まで一時的に
の風 12kt
視程: 2000m
高度3500ftの雲はほとんどない
広範な塵
確率 30% :
23日の 00時(UTC)から 23日の 06時(UTC)まで一時的に
高度3000ftの雲は散在している
高度8000ftの雲は散在している
小雨
23日の 06時(UTC)から 23日の 08時(UTC)まで徐々に
南西の風 8kt

TAF: OJAM 220450Z 2206/2312 12006KT 4000 HZ FEW035 TEMPO 2210/2220 17012KT 2000 DU FEW035 PROB30 TEMPO 2300/2306 -RA SCT030 SCT080 BECMG 2306/2308 23008KT

4,000以上の空港の気象観測と天気予報(METAR報とTAF報)

利用可能な観測所は地図上に黄色い丸と赤い丸で示す。

丸の上にカーソルを重ねると観測所名を参照できる。

次にクリックすると気象観測と天気予報を参照できる。

マップの切り替え:黒色「×」印の緑ボタンをクリックして拡大、「-」印の緑ボタンをクリックして縮小、緑色の三角印をクリックして隣りの地図に切り替え


METAR-TAF: